Time;durP1;ratioP1;P1;durP2;ratioP2;P2;SDS_P1;SDS_P2;PMS_P1;PMS_P2;Temp;Humidity;BMP_temperature;BMP_pressure;BME280_temperature;BME280_humidity;BME280_pressure;Samples;Min_cycle;Max_cycle;Signal;HPM_P1;HPM_P2
2021/10/30 00:00:18;;;;;;;154.57;147.87;;;11.40;99.90;;;;;;4400385;32;20623;-61
2021/10/30 00:02:48;;;;;;;147.70;141.33;;;11.40;99.90;;;;;;4405381;32;20159;-62
2021/10/30 00:05:16;;;;;;;136.63;130.40;;;11.40;99.90;;;;;;4394150;32;20164;-61
2021/10/30 00:07:44;;;;;;;142.97;136.60;;;11.30;99.90;;;;;;4393507;32;20186;-62
2021/10/30 00:10:20;;;;;;;136.70;130.70;;;11.30;99.90;;;;;;4392607;32;20202;-62
2021/10/30 00:12:50;;;;;;;133.53;127.57;;;11.30;99.90;;;;;;4392558;32;20211;-62
2021/10/30 00:15:20;;;;;;;141.83;135.67;;;11.20;99.90;;;;;;4393922;32;20152;-62
2021/10/30 00:17:54;;;;;;;141.07;134.97;;;11.20;99.90;;;;;;4406268;32;20588;-62
2021/10/30 00:20:26;;;;;;;138.17;131.90;;;11.20;99.90;;;;;;4394295;32;20147;-62
2021/10/30 00:22:57;;;;;;;140.17;133.80;;;11.20;99.90;;;;;;4395541;32;20215;-62
2021/10/30 00:25:24;;;;;;;138.30;132.17;;;11.20;99.90;;;;;;4407198;32;20144;-62
2021/10/30 00:27:53;;;;;;;138.03;131.77;;;11.20;99.90;;;;;;4406488;32;20201;-62
2021/10/30 00:30:26;;;;;;;157.23;150.40;;;11.10;99.90;;;;;;4397562;32;20206;-61
2021/10/30 00:33:00;;;;;;;149.83;143.27;;;11.20;99.90;;;;;;4402414;32;20178;-62
2021/10/30 00:35:27;;;;;;;157.17;150.07;;;11.10;99.90;;;;;;4408218;32;20148;-62
2021/10/30 00:37:58;;;;;;;161.60;154.40;;;11.10;99.90;;;;;;4406331;32;20160;-62
2021/10/30 00:40:31;;;;;;;152.93;146.37;;;11.10;99.90;;;;;;4406258;32;20163;-61
2021/10/30 00:43:01;;;;;;;160.43;153.47;;;11.10;99.90;;;;;;4394442;32;20191;-63
2021/10/30 00:45:33;;;;;;;168.20;160.97;;;11.10;99.90;;;;;;4407529;32;20696;-62
2021/10/30 00:48:06;;;;;;;171.77;164.50;;;11.10;99.90;;;;;;4407150;32;20504;-62
2021/10/30 00:50:33;;;;;;;181.17;173.43;;;11.10;99.90;;;;;;4396237;32;20174;-62
2021/10/30 00:53:07;;;;;;;169.73;162.10;;;11.20;99.90;;;;;;4400271;32;20176;-62
2021/10/30 00:55:37;;;;;;;173.27;165.80;;;11.10;99.90;;;;;;4393877;32;20219;-62
2021/10/30 00:58:12;;;;;;;178.20;170.50;;;11.20;99.90;;;;;;4399498;32;20224;-63
2021/10/30 01:00:39;;;;;;;175.13;167.50;;;11.10;99.90;;;;;;4405271;32;20217;-62
2021/10/30 01:03:15;;;;;;;185.90;178.00;;;11.10;99.90;;;;;;4397517;32;20186;-61
2021/10/30 01:05:42;;;;;;;192.10;184.10;;;11.10;99.90;;;;;;4391830;32;20160;-63
2021/10/30 01:08:13;;;;;;;197.80;189.43;;;11.10;99.90;;;;;;4392667;32;20159;-62
2021/10/30 01:10:42;;;;;;;199.23;190.67;;;11.10;99.90;;;;;;4391720;32;20211;-61
2021/10/30 01:13:09;;;;;;;221.13;211.60;;;11.00;99.90;;;;;;4401868;32;20175;-61
2021/10/30 01:15:43;;;;;;;248.50;237.90;;;11.20;99.90;;;;;;4397602;32;20534;-62
2021/10/30 01:18:18;;;;;;;234.53;224.90;;;11.40;99.90;;;;;;4404022;32;20160;-63
2021/10/30 01:20:46;;;;;;;254.03;243.27;;;11.50;99.90;;;;;;4406841;32;20197;-62
2021/10/30 01:23:18;;;;;;;252.60;241.50;;;11.60;99.90;;;;;;4392102;32;20159;-63
2021/10/30 01:25:48;;;;;;;250.13;239.73;;;11.70;99.90;;;;;;4391246;32;20160;-61
2021/10/30 01:28:17;;;;;;;237.23;227.37;;;11.80;99.90;;;;;;4399704;32;20168;-62
2021/10/30 01:30:48;;;;;;;224.93;215.57;;;11.80;99.90;;;;;;4406728;32;20171;-63
2021/10/30 01:33:15;;;;;;;211.87;202.90;;;11.60;99.90;;;;;;4405203;32;20178;-62
2021/10/30 01:35:44;;;;;;;217.40;208.20;;;11.60;99.90;;;;;;4396882;32;20160;-62
2021/10/30 01:38:15;;;;;;;218.83;209.73;;;11.50;99.90;;;;;;4404807;32;20182;-62
2021/10/30 01:40:45;;;;;;;199.80;191.13;;;11.50;99.90;;;;;;4398126;32;20183;-61
2021/10/30 01:43:21;;;;;;;220.27;210.87;;;11.40;99.90;;;;;;4404758;32;20160;-62
2021/10/30 01:45:50;;;;;;;207.57;198.87;;;11.40;99.90;;;;;;4396357;32;20222;-63
2021/10/30 01:48:20;;;;;;;214.30;205.37;;;11.40;99.90;;;;;;4403054;32;20176;-61
2021/10/30 01:50:53;;;;;;;211.63;202.77;;;11.40;99.90;;;;;;4391515;32;20152;-62
2021/10/30 01:53:23;;;;;;;197.70;189.20;;;11.40;99.90;;;;;;4391224;32;20189;-62
2021/10/30 01:55:50;;;;;;;209.63;200.80;;;11.40;99.90;;;;;;4396686;32;20175;-62
2021/10/30 01:58:20;;;;;;;196.50;187.97;;;11.30;99.90;;;;;;4405860;32;20641;-62
2021/10/30 02:00:49;;;;;;;199.87;191.53;;;11.30;99.90;;;;;;4393426;32;20160;-62
2021/10/30 02:03:16;;;;;;;184.10;176.17;;;11.20;99.90;;;;;;4392054;32;20531;-62
2021/10/30 02:05:46;;;;;;;180.17;172.30;;;11.20;99.90;;;;;;4391056;32;20156;-64
2021/10/30 02:08:13;;;;;;;183.90;176.17;;;11.20;99.90;;;;;;4391248;32;20179;-61
2021/10/30 02:11:10;;;;;;;182.30;174.63;;;11.10;99.90;;;;;;4391895;32;20179;-62
2021/10/30 02:13:37;;;;;;;181.47;173.77;;;11.10;99.90;;;;;;4391215;32;20167;-62
2021/10/30 02:16:04;;;;;;;175.70;168.03;;;11.10;99.90;;;;;;4391956;32;20156;-61
2021/10/30 02:18:34;;;;;;;185.27;177.20;;;11.10;99.90;;;;;;4402915;32;20190;-61
2021/10/30 02:21:00;;;;;;;188.70;180.60;;;11.10;99.90;;;;;;4406724;32;20148;-62
2021/10/30 02:23:27;;;;;;;176.97;169.37;;;11.10;99.90;;;;;;4402154;32;20164;-62
2021/10/30 02:25:58;;;;;;;183.43;175.53;;;11.10;99.90;;;;;;4390591;32;20160;-62
2021/10/30 02:28:25;;;;;;;183.90;175.87;;;11.10;99.90;;;;;;4392651;32;20191;-62
2021/10/30 02:30:55;;;;;;;196.00;187.70;;;11.00;99.90;;;;;;4399588;32;20175;-62
2021/10/30 02:33:23;;;;;;;189.20;181.10;;;10.90;99.90;;;;;;4401746;32;20159;-62
2021/10/30 02:35:50;;;;;;;214.57;205.33;;;10.90;99.90;;;;;;4404707;32;20159;-62
2021/10/30 02:38:25;;;;;;;213.43;204.23;;;11.00;99.90;;;;;;4405379;32;20178;-61
2021/10/30 02:41:00;;;;;;;211.23;202.33;;;11.00;99.90;;;;;;4405236;32;20169;-61
2021/10/30 02:43:27;;;;;;;201.77;193.20;;;11.00;99.90;;;;;;4394011;32;20147;-62
2021/10/30 02:45:53;;;;;;;205.97;197.10;;;11.00;99.90;;;;;;4404864;32;20217;-62
2021/10/30 02:48:33;;;;;;;218.83;209.63;;;11.10;99.90;;;;;;4399977;32;20155;-63
2021/10/30 02:51:06;;;;;;;211.13;202.10;;;11.10;99.90;;;;;;4391029;32;20152;-63
2021/10/30 02:53:45;;;;;;;220.80;211.37;;;11.10;99.90;;;;;;4406099;32;20144;-61
2021/10/30 02:56:15;;;;;;;207.80;198.90;;;11.10;99.90;;;;;;4402092;32;20178;-61
2021/10/30 02:58:49;;;;;;;201.20;192.40;;;11.00;99.90;;;;;;4398396;32;20472;-61
2021/10/30 03:01:16;;;;;;;206.90;197.80;;;11.00;99.90;;;;;;4390626;32;20167;-62
2021/10/30 03:03:47;;;;;;;197.47;188.97;;;11.00;99.90;;;;;;4395429;32;20164;-62
2021/10/30 03:06:21;;;;;;;190.87;182.43;;;11.00;99.90;;;;;;4402265;32;20166;-64
2021/10/30 03:08:52;;;;;;;193.93;185.27;;;11.00;99.90;;;;;;4395088;32;20205;-61
2021/10/30 03:11:31;;;;;;;191.43;182.90;;;10.90;99.90;;;;;;4405412;32;20304;-62
2021/10/30 03:14:07;;;;;;;188.93;180.53;;;10.90;99.90;;;;;;4404538;32;20152;-63
2021/10/30 03:16:38;;;;;;;196.83;188.23;;;10.90;99.90;;;;;;4405167;32;20238;-62
2021/10/30 03:19:04;;;;;;;209.70;200.50;;;10.90;99.90;;;;;;4406863;32;20484;-62
2021/10/30 03:21:37;;;;;;;200.63;191.63;;;10.90;99.90;;;;;;4405698;32;20193;-61
2021/10/30 03:24:10;;;;;;;224.63;214.83;;;11.00;99.90;;;;;;4391113;32;20487;-61
2021/10/30 03:26:39;;;;;;;215.53;206.23;;;11.00;99.90;;;;;;4391878;32;20152;-63
2021/10/30 03:29:12;;;;;;;233.90;223.80;;;11.10;99.90;;;;;;4394705;32;20164;-64
2021/10/30 03:31:40;;;;;;;233.70;223.37;;;11.10;99.90;;;;;;4400362;32;20214;-61
2021/10/30 03:34:14;;;;;;;238.57;228.27;;;11.20;99.90;;;;;;4398098;32;20164;-61
2021/10/30 03:36:48;;;;;;;231.93;221.60;;;11.20;99.90;;;;;;4391303;32;20570;-61
2021/10/30 03:39:17;;;;;;;228.40;218.53;;;11.20;99.90;;;;;;4400944;32;20179;-63
2021/10/30 03:41:45;;;;;;;236.37;226.00;;;11.30;99.90;;;;;;4397019;32;20199;-62
2021/10/30 03:44:13;;;;;;;236.90;226.63;;;11.30;99.90;;;;;;4404941;32;20475;-63
2021/10/30 03:46:49;;;;;;;233.00;222.57;;;11.30;99.90;;;;;;4404112;32;20187;-62
2021/10/30 03:49:20;;;;;;;238.93;228.50;;;11.30;99.90;;;;;;4404570;32;20171;-61
2021/10/30 03:51:53;;;;;;;240.03;229.90;;;11.30;99.90;;;;;;4402779;32;20273;-62
2021/10/30 03:54:20;;;;;;;223.37;213.70;;;11.30;99.90;;;;;;4393276;32;20209;-62
2021/10/30 03:57:03;;;;;;;240.00;229.80;;;11.40;99.90;;;;;;4404772;32;20160;-61
2021/10/30 03:59:30;;;;;;;248.63;237.93;;;11.40;99.90;;;;;;4401538;32;20230;-63
2021/10/30 04:02:02;;;;;;;242.13;231.57;;;11.50;99.90;;;;;;4393112;32;20197;-62
2021/10/30 04:04:30;;;;;;;249.00;238.00;;;11.50;99.90;;;;;;4405336;32;20331;-61
2021/10/30 04:06:59;;;;;;;247.57;236.97;;;11.40;99.90;;;;;;4406484;32;20155;-63
2021/10/30 04:09:29;;;;;;;262.03;250.83;;;11.50;99.90;;;;;;4396210;32;20212;-62
2021/10/30 04:11:57;;;;;;;245.37;234.60;;;11.50;99.90;;;;;;4406707;32;20176;-62
2021/10/30 04:14:28;;;;;;;241.40;231.17;;;11.50;99.90;;;;;;4394131;32;20576;-61
2021/10/30 04:17:00;;;;;;;228.80;218.87;;;11.60;99.90;;;;;;4397426;32;20211;-62
2021/10/30 04:19:30;;;;;;;227.37;217.33;;;11.60;99.90;;;;;;4407166;32;20155;-62
2021/10/30 04:22:03;;;;;;;212.70;203.50;;;11.60;99.90;;;;;;4408848;32;20152;-62
2021/10/30 04:24:30;;;;;;;227.33;217.47;;;11.70;99.90;;;;;;4407326;32;20182;-62
2021/10/30 04:27:08;;;;;;;224.07;214.07;;;11.70;99.90;;;;;;4409270;32;20163;-62
2021/10/30 04:29:35;;;;;;;209.23;200.20;;;11.70;99.90;;;;;;4400067;32;20152;-62
2021/10/30 04:32:07;;;;;;;215.87;206.20;;;11.70;99.90;;;;;;4403383;32;20693;-61
2021/10/30 04:34:43;;;;;;;212.00;202.83;;;11.70;99.90;;;;;;4393015;32;20290;-61
2021/10/30 04:37:15;;;;;;;219.63;210.20;;;11.70;99.90;;;;;;4396987;32;20151;-63
2021/10/30 04:39:43;;;;;;;215.33;205.90;;;11.70;99.90;;;;;;4406750;32;20182;-62
2021/10/30 04:42:15;;;;;;;225.40;215.43;;;11.70;99.90;;;;;;4409275;32;20191;-61
2021/10/30 04:44:48;;;;;;;224.87;214.93;;;11.70;99.90;;;;;;4407014;32;20187;-61
2021/10/30 04:47:19;;;;;;;238.27;227.93;;;11.70;99.90;;;;;;4394017;32;20159;-62
2021/10/30 04:49:47;;;;;;;236.07;225.87;;;11.70;99.90;;;;;;4393100;32;20168;-62
2021/10/30 04:52:18;;;;;;;259.70;248.30;;;11.70;99.90;;;;;;4392775;32;20576;-63
2021/10/30 04:54:51;;;;;;;240.63;230.10;;;11.70;99.90;;;;;;4395846;32;20177;-62
2021/10/30 04:57:20;;;;;;;255.60;244.70;;;11.80;99.90;;;;;;4407699;32;20149;-62
2021/10/30 04:59:48;;;;;;;234.77;224.63;;;11.80;99.90;;;;;;4395906;32;20584;-61
2021/10/30 05:02:23;;;;;;;255.73;244.80;;;11.80;99.90;;;;;;4395240;32;20238;-63
2021/10/30 05:05:01;;;;;;;241.03;230.67;;;11.80;99.90;;;;;;4395395;32;20162;-61
2021/10/30 05:07:37;;;;;;;231.70;221.57;;;11.80;99.90;;;;;;4397438;32;20612;-62
2021/10/30 05:10:06;;;;;;;239.37;229.03;;;11.80;99.90;;;;;;4391908;32;20159;-62
2021/10/30 05:12:37;;;;;;;254.07;243.13;;;11.80;99.90;;;;;;4400386;32;20183;-61
2021/10/30 05:15:10;;;;;;;249.97;239.33;;;11.90;99.90;;;;;;4405442;32;20191;-62
2021/10/30 05:17:41;;;;;;;238.80;228.53;;;11.90;99.90;;;;;;4406143;32;20183;-62
2021/10/30 05:20:18;;;;;;;239.83;229.33;;;11.90;99.90;;;;;;4401947;32;20156;-62
2021/10/30 05:22:45;;;;;;;251.93;241.13;;;12.00;99.90;;;;;;4396238;32;20156;-61
2021/10/30 05:25:12;;;;;;;265.47;253.90;;;11.90;99.90;;;;;;4406584;32;20579;-63
2021/10/30 05:27:40;;;;;;;274.50;262.27;;;12.00;99.90;;;;;;4406733;32;20151;-62
2021/10/30 05:30:12;;;;;;;272.23;260.30;;;12.00;99.90;;;;;;4406390;32;20160;-64
2021/10/30 05:32:41;;;;;;;262.10;250.60;;;11.90;99.90;;;;;;4396366;32;20179;-62
2021/10/30 05:35:09;;;;;;;277.73;265.63;;;12.00;99.90;;;;;;4399338;32;20172;-62
2021/10/30 05:37:39;;;;;;;284.13;271.93;;;11.90;99.90;;;;;;4405827;32;20209;-64
2021/10/30 05:40:11;;;;;;;284.53;272.20;;;11.90;99.90;;;;;;4406392;32;20156;-62
2021/10/30 05:42:45;;;;;;;289.43;276.60;;;11.90;99.90;;;;;;4394920;32;20212;-62
2021/10/30 05:45:20;;;;;;;287.83;275.33;;;11.80;99.90;;;;;;4392405;32;20199;-61
2021/10/30 05:47:50;;;;;;;305.77;292.37;;;11.90;99.90;;;;;;4391887;32;20176;-62
2021/10/30 05:50:17;;;;;;;302.57;289.13;;;11.80;99.90;;;;;;4405325;32;20487;-62
2021/10/30 05:52:45;;;;;;;300.13;286.80;;;11.80;99.90;;;;;;4394818;32;20178;-63
2021/10/30 05:55:15;;;;;;;323.37;308.83;;;11.80;99.90;;;;;;4392908;32;20195;-64
2021/10/30 05:57:42;;;;;;;304.87;291.53;;;11.80;99.90;;;;;;4403293;32;20191;-63
2021/10/30 06:00:20;;;;;;;293.13;280.00;;;11.80;99.90;;;;;;4398658;32;20178;-62
2021/10/30 06:02:49;;;;;;;308.87;295.47;;;11.80;99.90;;;;;;4392351;32;20191;-62
2021/10/30 06:05:16;;;;;;;308.40;295.07;;;11.80;99.90;;;;;;4390991;32;20140;-62
2021/10/30 06:07:48;;;;;;;300.83;287.83;;;11.80;99.90;;;;;;4402989;32;20186;-64
2021/10/30 06:10:21;;;;;;;297.50;284.33;;;11.80;99.90;;;;;;4401019;32;20148;-62
2021/10/30 06:12:48;;;;;;;303.40;289.80;;;11.80;99.90;;;;;;4393055;32;20152;-62
2021/10/30 06:15:17;;;;;;;298.13;284.97;;;11.80;99.90;;;;;;4406559;32;20143;-62
2021/10/30 06:17:44;;;;;;;301.70;288.53;;;11.70;99.90;;;;;;4401616;32;20148;-62
2021/10/30 06:20:11;;;;;;;311.83;298.23;;;11.70;99.90;;;;;;4400008;32;20148;-63
2021/10/30 06:22:45;;;;;;;296.30;283.13;;;11.70;99.90;;;;;;4398553;32;20650;-64
2021/10/30 06:25:18;;;;;;;292.43;279.47;;;11.70;99.90;;;;;;4396378;32;20234;-62
2021/10/30 06:27:51;;;;;;;296.67;283.80;;;11.70;99.90;;;;;;4394458;32;20148;-62
2021/10/30 06:30:28;;;;;;;293.07;279.77;;;11.70;99.90;;;;;;4397547;32;20226;-62
2021/10/30 06:32:55;;;;;;;289.43;276.57;;;11.70;99.90;;;;;;4396010;32;20162;-62
2021/10/30 06:35:27;;;;;;;302.80;289.50;;;11.70;99.90;;;;;;4397959;32;20179;-64
2021/10/30 06:37:55;;;;;;;297.27;284.40;;;11.70;99.90;;;;;;4394186;32;20167;-62
2021/10/30 06:40:31;;;;;;;300.30;287.27;;;11.70;99.90;;;;;;4394178;32;20228;-64
2021/10/30 06:43:04;;;;;;;292.67;279.43;;;11.70;99.90;;;;;;4392021;32;20207;-62
2021/10/30 06:45:35;;;;;;;298.90;285.43;;;11.70;99.90;;;;;;4392339;32;20140;-62
2021/10/30 06:48:08;;;;;;;288.17;275.33;;;11.70;99.90;;;;;;4399829;32;20199;-64
2021/10/30 06:50:37;;;;;;;296.57;283.20;;;11.70;99.90;;;;;;4395697;32;20175;-62
2021/10/30 06:53:11;;;;;;;286.43;273.53;;;11.70;99.90;;;;;;4401242;32;20166;-64
2021/10/30 06:55:45;;;;;;;304.83;291.33;;;11.70;99.90;;;;;;4396229;32;20191;-63
2021/10/30 06:58:18;;;;;;;293.50;280.17;;;11.60;99.90;;;;;;4399585;32;20244;-61
2021/10/30 07:00:47;;;;;;;327.83;313.50;;;11.70;99.90;;;;;;4397975;32;20577;-62
2021/10/30 07:03:16;;;;;;;330.83;316.27;;;11.70;99.90;;;;;;4397252;32;20606;-62
2021/10/30 07:06:00;;;;;;;355.87;340.03;;;11.70;99.90;;;;;;4397407;32;20495;-63
2021/10/30 07:08:31;;;;;;;347.57;331.87;;;11.70;99.90;;;;;;4397860;32;20148;-62
2021/10/30 07:11:04;;;;;;;350.37;334.13;;;11.70;99.90;;;;;;4396275;32;20203;-62
2021/10/30 07:13:31;;;;;;;349.03;333.43;;;11.70;99.90;;;;;;4398408;32;20159;-63
2021/10/30 07:16:04;;;;;;;337.07;322.30;;;11.70;99.90;;;;;;4397735;32;20222;-64
2021/10/30 07:18:31;;;;;;;356.87;340.93;;;11.70;99.90;;;;;;4397560;32;20144;-62
2021/10/30 07:20:58;;;;;;;357.63;341.47;;;11.70;99.90;;;;;;4396007;32;20136;-62
2021/10/30 07:23:30;;;;;;;369.93;353.27;;;11.70;99.90;;;;;;4399131;32;20510;-64
2021/10/30 07:25:57;;;;;;;357.83;341.67;;;11.70;99.90;;;;;;4394471;32;20472;-61
2021/10/30 07:28:25;;;;;;;354.30;338.40;;;11.70;99.90;;;;;;4394546;32;20194;-63
2021/10/30 07:30:54;;;;;;;367.80;351.07;;;11.70;99.90;;;;;;4396697;32;20191;-62
2021/10/30 07:33:25;;;;;;;383.03;365.70;;;11.70;99.90;;;;;;4398229;32;20581;-61
2021/10/30 07:35:55;;;;;;;378.77;361.53;;;11.70;99.90;;;;;;4395482;32;20144;-64
2021/10/30 07:38:23;;;;;;;349.73;333.93;;;11.70;99.90;;;;;;4398076;32;20190;-62
2021/10/30 07:40:51;;;;;;;377.80;360.73;;;11.70;99.90;;;;;;4395268;32;20520;-61
2021/10/30 07:43:23;;;;;;;367.10;350.47;;;11.70;99.90;;;;;;4396052;32;20145;-62
2021/10/30 07:45:50;;;;;;;386.87;369.20;;;11.70;99.90;;;;;;4398448;32;20593;-64
2021/10/30 07:48:17;;;;;;;374.70;357.73;;;11.70;99.90;;;;;;4399578;32;20170;-61
2021/10/30 07:50:53;;;;;;;388.00;369.80;;;11.70;99.90;;;;;;4400912;32;20159;-62
2021/10/30 07:53:27;;;;;;;359.97;343.67;;;11.70;99.90;;;;;;4401145;32;20239;-63
2021/10/30 07:56:07;;;;;;;374.03;357.43;;;11.70;99.90;;;;;;4398022;32;20201;-63
2021/10/30 07:58:39;;;;;;;383.00;365.73;;;11.70;99.90;;;;;;4397617;32;20144;-61
2021/10/30 08:01:17;;;;;;;365.67;348.67;;;11.70;99.90;;;;;;4400467;32;20223;-61
2021/10/30 08:03:46;;;;;;;372.80;355.83;;;11.80;99.90;;;;;;4402947;32;20155;-63
2021/10/30 08:06:27;;;;;;;375.47;358.77;;;11.80;99.90;;;;;;4404231;32;20148;-62
2021/10/30 08:08:54;;;;;;;384.10;366.67;;;11.80;99.90;;;;;;4402162;32;20219;-63
2021/10/30 08:11:24;;;;;;;372.37;355.27;;;11.80;99.90;;;;;;4403288;32;20136;-61
2021/10/30 08:13:53;;;;;;;368.83;352.10;;;11.90;99.90;;;;;;4399295;32;20226;-63
2021/10/30 08:16:20;;;;;;;376.17;359.47;;;11.90;99.90;;;;;;4400408;32;20155;-62
2021/10/30 08:18:49;;;;;;;368.50;351.87;;;11.90;99.90;;;;;;4400041;32;20140;-62
2021/10/30 08:21:20;;;;;;;395.67;377.27;;;11.90;99.90;;;;;;4398165;32;20144;-62
2021/10/30 08:23:49;;;;;;;370.00;353.53;;;11.90;99.90;;;;;;4403242;32;20141;-61
2021/10/30 08:26:20;;;;;;;389.00;371.17;;;11.90;99.90;;;;;;4405033;32;20167;-62
2021/10/30 08:28:49;;;;;;;377.57;360.13;;;11.90;99.90;;;;;;4395341;32;20186;-62
2021/10/30 08:31:18;;;;;;;383.47;366.30;;;12.00;99.90;;;;;;4405165;32;20159;-64
2021/10/30 08:33:57;;;;;;;394.73;376.80;;;12.00;99.90;;;;;;4408600;32;20147;-63
2021/10/30 08:36:33;;;;;;;363.80;347.63;;;12.00;99.90;;;;;;4409394;32;20158;-64
2021/10/30 08:39:06;;;;;;;381.67;364.57;;;11.90;99.90;;;;;;4408083;32;20135;-62
2021/10/30 08:41:35;;;;;;;395.67;377.60;;;11.90;99.90;;;;;;4407086;32;20207;-62
2021/10/30 08:44:06;;;;;;;385.00;367.90;;;12.00;99.90;;;;;;4407342;32;20160;-62
2021/10/30 08:46:39;;;;;;;392.77;375.23;;;12.00;99.90;;;;;;4409026;32;20136;-63
2021/10/30 08:49:09;;;;;;;386.33;369.27;;;12.00;99.90;;;;;;4408711;32;20141;-62
2021/10/30 08:51:40;;;;;;;399.47;381.40;;;12.10;99.90;;;;;;4407303;32;20430;-64
2021/10/30 08:54:12;;;;;;;381.93;365.13;;;12.10;99.90;;;;;;4407300;32;20136;-63
2021/10/30 08:56:45;;;;;;;380.17;363.27;;;12.10;99.90;;;;;;4407008;32;20536;-62
2021/10/30 08:59:47;;;;;;;393.27;375.73;;;12.10;99.90;;;;;;4407162;32;20194;-65
2021/10/30 09:02:26;;;;;;;387.33;370.13;;;12.10;99.90;;;;;;4407304;32;20140;-64
2021/10/30 09:05:15;;;;;;;375.00;358.53;;;12.10;99.90;;;;;;4406586;32;20607;-62
2021/10/30 09:07:44;;;;;;;385.23;368.10;;;12.10;99.90;;;;;;4408756;32;20157;-63
2021/10/30 09:10:27;;;;;;;388.07;370.73;;;12.10;99.90;;;;;;4407062;32;20136;-62
2021/10/30 09:12:58;;;;;;;388.27;371.10;;;12.10;99.90;;;;;;4406456;32;20144;-64
2021/10/30 09:15:40;;;;;;;390.90;373.77;;;12.10;99.90;;;;;;4408519;32;20556;-63
2021/10/30 09:18:30;;;;;;;397.80;380.20;;;12.10;99.90;;;;;;4406982;32;20189;-62
2021/10/30 09:21:14;;;;;;;398.77;381.07;;;12.20;99.90;;;;;;4407391;32;20136;-63
2021/10/30 09:24:08;;;;;;;401.07;383.40;;;12.20;99.90;;;;;;4406949;32;20160;-63
2021/10/30 09:26:35;;;;;;;398.73;381.13;;;12.20;99.90;;;;;;4406851;32;20207;-62
2021/10/30 09:29:13;;;;;;;430.53;410.90;;;12.20;99.90;;;;;;4408405;32;20140;-61
2021/10/30 09:31:42;;;;;;;422.87;403.70;;;12.20;99.90;;;;;;4408409;32;20158;-63
2021/10/30 09:34:26;;;;;;;413.43;394.93;;;12.20;99.90;;;;;;4408479;32;20633;-63
2021/10/30 09:36:59;;;;;;;424.83;405.47;;;12.20;99.90;;;;;;4408417;32;20141;-64
2021/10/30 09:39:30;;;;;;;412.10;393.40;;;12.30;99.90;;;;;;4406582;32;20144;-64
2021/10/30 09:42:01;;;;;;;417.70;398.70;;;12.30;99.90;;;;;;4408226;32;20150;-63
2021/10/30 09:44:32;;;;;;;427.80;408.20;;;12.30;99.90;;;;;;4406406;32;20166;-63
2021/10/30 09:46:59;;;;;;;437.83;418.03;;;12.30;99.90;;;;;;4407115;32;20144;-63
2021/10/30 09:49:36;;;;;;;444.30;423.97;;;12.30;99.90;;;;;;4408331;32;20148;-64
2021/10/30 09:52:16;;;;;;;434.57;414.57;;;12.30;99.90;;;;;;4406355;32;20217;-62
2021/10/30 09:54:51;;;;;;;419.03;399.87;;;12.30;99.90;;;;;;4406635;32;20163;-64
2021/10/30 09:57:33;;;;;;;434.03;414.20;;;12.30;99.90;;;;;;4408085;32;20143;-63
2021/10/30 10:00:11;;;;;;;441.27;420.87;;;12.30;99.90;;;;;;4406335;32;20140;-65
2021/10/30 10:02:41;;;;;;;423.07;403.83;;;12.30;99.90;;;;;;4406258;32;20162;-63
2021/10/30 10:05:10;;;;;;;462.63;441.10;;;12.30;99.90;;;;;;4406432;32;20148;-63
2021/10/30 10:07:41;;;;;;;428.07;408.70;;;12.30;99.90;;;;;;4406656;32;20214;-63
2021/10/30 10:10:29;;;;;;;454.73;434.10;;;12.30;99.90;;;;;;4407328;32;20150;-63
2021/10/30 10:13:10;;;;;;;449.63;429.07;;;12.30;99.90;;;;;;4407964;32;20220;-63
2021/10/30 10:15:45;;;;;;;457.63;436.73;;;12.40;99.90;;;;;;4404876;32;20140;-63
2021/10/30 10:18:21;;;;;;;441.17;421.07;;;12.40;99.90;;;;;;4392746;32;20144;-63
2021/10/30 10:20:49;;;;;;;439.70;419.60;;;12.50;99.90;;;;;;4391017;32;20155;-63
2021/10/30 10:23:21;;;;;;;457.37;436.07;;;12.50;99.90;;;;;;4391404;32;20136;-64
2021/10/30 10:25:54;;;;;;;456.43;435.00;;;12.50;99.90;;;;;;4392536;32;20140;-63
2021/10/30 10:28:34;;;;;;;461.03;439.53;;;12.50;99.90;;;;;;4391470;32;20208;-66
2021/10/30 10:31:20;;;;;;;460.07;438.83;;;12.60;99.90;;;;;;4390914;32;20159;-66
2021/10/30 10:34:07;;;;;;;471.93;449.97;;;12.60;99.90;;;;;;4392569;32;20207;-65
2021/10/30 10:36:42;;;;;;;425.17;405.77;;;12.60;99.90;;;;;;4391503;32;20259;-64
2021/10/30 10:39:20;;;;;;;438.03;418.03;;;12.50;99.90;;;;;;4390777;32;20207;-66
2021/10/30 10:42:15;;;;;;;453.17;432.07;;;12.60;99.90;;;;;;4390749;32;20185;-66
2021/10/30 10:45:07;;;;;;;456.50;435.43;;;12.60;99.90;;;;;;4329159;33;20197;-63
2021/10/30 10:47:58;;;;;;;441.50;421.00;;;12.60;99.90;;;;;;4330357;33;20181;-63
2021/10/30 10:50:43;;;;;;;439.80;419.53;;;12.60;99.90;;;;;;4329070;33;20154;-65
2021/10/30 10:53:26;;;;;;;451.07;430.57;;;12.60;99.90;;;;;;4330459;33;20141;-64
2021/10/30 10:56:32;;;;;;;442.50;422.10;;;12.60;99.90;;;;;;4328526;33;20154;-64
2021/10/30 10:59:38;;;;;;;441.70;421.17;;;12.70;99.90;;;;;;4328967;33;20169;-64
2021/10/30 11:02:31;;;;;;;446.20;425.80;;;12.80;99.90;;;;;;4328850;33;20294;-63
2021/10/30 11:05:27;;;;;;;475.40;452.50;;;12.90;99.90;;;;;;4328661;33;20149;-63
2021/10/30 11:08:29;;;;;;;452.27;430.73;;;12.90;99.90;;;;;;4328780;33;20223;-63
2021/10/30 11:11:27;;;;;;;440.90;420.83;;;13.00;99.90;;;;;;4330719;33;20152;-65
2021/10/30 11:13:59;;;;;;;433.07;413.33;;;13.10;99.90;;;;;;4328714;33;20204;-63
2021/10/30 11:16:30;;;;;;;451.87;431.10;;;13.10;99.90;;;;;;4329112;33;20160;-63
2021/10/30 11:19:24;;;;;;;462.17;440.43;;;13.10;99.90;;;;;;4329435;33;20150;-63
2021/10/30 11:21:56;;;;;;;453.23;432.47;;;13.10;99.90;;;;;;4313885;33;20167;-64
2021/10/30 11:24:53;;;;;;;451.77;430.63;;;13.10;99.90;;;;;;4348097;33;20525;-64
2021/10/30 11:27:21;;;;;;;447.93;426.23;;;13.20;99.90;;;;;;4334795;33;20492;-65
2021/10/30 11:30:04;;;;;;;462.03;439.83;;;13.10;99.90;;;;;;4348055;33;20180;-64
2021/10/30 11:32:38;;;;;;;453.83;431.57;;;13.10;99.90;;;;;;4346423;33;20240;-63
2021/10/30 11:35:13;;;;;;;467.60;445.03;;;13.20;99.90;;;;;;4348142;33;20169;-64
2021/10/30 11:37:45;;;;;;;439.07;418.97;;;13.30;99.90;;;;;;4352347;32;20163;-64
2021/10/30 11:40:16;;;;;;;468.33;445.70;;;13.30;99.90;;;;;;4362377;32;20165;-65
2021/10/30 11:42:44;;;;;;;457.57;436.70;;;13.30;99.90;;;;;;4351853;32;20578;-63
2021/10/30 11:45:11;;;;;;;449.73;429.00;;;13.30;99.90;;;;;;4346138;33;20153;-64
2021/10/30 11:47:40;;;;;;;439.67;419.30;;;13.20;99.90;;;;;;4346787;33;20176;-63
2021/10/30 11:50:10;;;;;;;458.67;436.93;;;13.10;99.90;;;;;;4346140;33;20177;-63
2021/10/30 11:52:49;;;;;;;450.00;428.83;;;13.10;99.90;;;;;;4346604;32;20141;-64
2021/10/30 11:55:26;;;;;;;457.83;436.63;;;13.10;99.90;;;;;;4350491;33;20176;-64
2021/10/30 11:57:58;;;;;;;476.57;454.33;;;13.10;99.90;;;;;;4356552;32;20641;-63
2021/10/30 12:00:32;;;;;;;484.40;460.83;;;13.20;99.90;;;;;;4399557;32;20162;-64
2021/10/30 12:03:12;;;;;;;450.37;429.77;;;13.20;99.90;;;;;;4395645;32;20143;-64
2021/10/30 12:05:41;;;;;;;439.10;418.90;;;13.30;99.90;;;;;;4398166;32;20156;-64
2021/10/30 12:08:09;;;;;;;444.20;424.17;;;13.30;99.90;;;;;;4398904;32;20140;-64
2021/10/30 12:10:40;;;;;;;457.37;436.37;;;13.30;99.90;;;;;;4401406;32;20145;-64
2021/10/30 12:13:08;;;;;;;452.60;431.80;;;13.30;99.90;;;;;;4399858;32;20140;-65
2021/10/30 12:15:39;;;;;;;459.37;438.77;;;13.20;99.90;;;;;;4403959;32;20170;-64
2021/10/30 12:18:06;;;;;;;453.70;433.00;;;13.30;99.90;;;;;;4396256;32;20251;-61
2021/10/30 12:20:35;;;;;;;445.17;424.97;;;13.20;99.90;;;;;;4397157;32;20227;-62
2021/10/30 12:23:04;;;;;;;439.13;419.53;;;13.20;99.90;;;;;;4405420;32;20159;-63
2021/10/30 12:25:34;;;;;;;436.53;416.53;;;13.20;99.90;;;;;;4398388;32;20167;-62
2021/10/30 12:28:01;;;;;;;455.77;434.60;;;13.20;99.90;;;;;;4394578;32;20136;-63
2021/10/30 12:30:35;;;;;;;446.93;426.53;;;13.10;99.90;;;;;;4392681;32;20145;-62
2021/10/30 12:33:09;;;;;;;461.03;440.07;;;13.10;99.90;;;;;;4405366;32;20164;-62
2021/10/30 12:35:40;;;;;;;434.00;414.37;;;13.20;99.90;;;;;;4407409;32;20169;-62